Terminal Aerodrome Forecast
Issued by NWS Boston, MA

Home | Current Version | Previous Version | Text Only | Print | Product List | Glossary On
Versions: 1 2 3 4 5 6 7 8 9 10 11 12 13 14 15 16 17 18 19
000
FTUS41 KBOX 261120
TAFORH
TAF
KORH 261120Z 2612/2712 03009G18KT 1 1/2SM -RADZ BR OVC003
     FM270000 05005KT 1SM -DZ BR OVC003
     FM270600 VRB03KT 1 1/2SM BR OVC003
     FM270900 04004KT 2SM -DZ BR OVC003=

USA.gov is the U.S. government's official web portal to all federal, state and local government web resources and services.